• Join FlightAware (Why Join?)
  • Login
  • US Flag 
11:34AM EDT


 

Airport Tracker/Info


-or-


 

Live Flight TrackerFlight Track Log ✈ VH-NAN ✈ 26-Jun-2013 ✈ YPJT / JAD - YSHK / DNM

Flight Track Log - Related Links

Times and Time Zones

All times are in EDT time to prevent confusion due to time zone crossing. See the VH-NAN flight status page for this flight to view local times or setup timezone preferences in your user account.

Time Position Orientation Groundspeed Altitude Reporting Facility
EDT Latitude Longitude Course Direction KTS MPH feet Rate Location/Type
08:56PM -27.2191 114.0458 341° North  Level Estimated
08:57PM -27.1790 114.0314 342° North  Level Estimated
08:58PM -27.1389 114.0171 342° North  Level Estimated
08:59PM -27.0988 114.0028 342° North  Level Estimated
09:00PM -27.0587 113.9885 342° North  Level Estimated
09:01PM -27.0186 113.9742 342° North  Level Estimated
09:02PM -26.9785 113.9599 342° North  Level Estimated
09:03PM -26.9385 113.9456 342° North  Level Estimated
09:04PM -26.8984 113.9313 342° North  Level Estimated
09:05PM -26.8583 113.9171 342° North  Level Estimated
09:06PM -26.8182 113.9028 342° North  Level Estimated
09:07PM -26.7781 113.8886 342° North  Level Estimated
09:08PM -26.7380 113.8744 342° North  Level Estimated
09:09PM -26.6979 113.8601 342° North  Level Estimated
09:10PM -26.6578 113.8459 342° North  Level Estimated
09:11PM -26.6176 113.8317 342° North  Level Estimated
09:12PM -26.5775 113.8175 342° North  Level Estimated
09:13PM -26.5374 113.8034 342° North  Level Estimated
09:14PM -26.4973 113.7892 342° North  Level Estimated
09:15PM -26.4572 113.7750 342° North  Level Estimated
09:16PM -26.4171 113.7609 342° North  Level Estimated
09:17PM -26.3770 113.7467 342° North  Level Estimated
09:18PM -26.3369 113.7326 342° North  Level Estimated
09:19PM -26.2967 113.7185 342° North  Level Estimated
09:20PM -26.2566 113.7044 342° North  Level Estimated
09:21PM -26.2165 113.6903 342° North  Level Estimated
09:22PM -26.1764 113.6762 343° North  Level Estimated
09:23PM -26.1363 113.6621 343° North  Level Estimated
09:24PM -26.0961 113.6480 343° North  Level Estimated
09:25PM -26.0560 113.6339 343° North  Level Estimated
09:26PM -26.0159 113.6199 343° North  Level Estimated
09:27PM -25.9758 113.6059 343° North  Level Estimated
09:28PM -25.9356 113.5918 343° North  Level Estimated
09:29PM -25.8955 113.5778 343° North  Level Estimated
09:30PM -25.8939 113.5772 343° North  Level Estimated
09:31PM -25.8939 113.5772 61° Northeast  Level Estimated
09:32PM -25.8939 113.5772 61° Northeast  Level Estimated
09:33PM -25.8939 113.5772 61° Northeast  Level Estimated
09:34PM -25.8939 113.5772 61° Northeast  Level Estimated
09:35PM -25.8939 113.5772 61° Northeast  Level Estimated
09:36PM -25.8939 113.5772 61° Northeast  Level Estimated
09:37PM -25.8939 113.5772 61° Northeast  Level Estimated
09:38PM -25.8939 113.5772 61° Northeast  Level Estimated
09:39PM -25.8939 113.5772 61° Northeast  Level Estimated
09:40PM -25.8939 113.5772 61° Northeast  Level Estimated
09:41PM -25.8939 113.5772 61° Northeast  Level Estimated
09:42PM -25.8939 113.5772 61° Northeast  Level Estimated
09:43PM -25.8939 113.5772 61° Northeast  Level Estimated
09:44PM -25.8939 113.5772 61° Northeast  Level Estimated
09:45PM -25.8939 113.5772 61° Northeast  Level Estimated